Airfield :
LOGIN :

Register | Disclaimer

   EN    FR    IT 

 










Legend :    VFR   Marginal VFR   IFR   Intensive IFR   Very Intensive IFR
Visi :
Ceiling :
>= 8 km
>= 3000ft
5 to 8 km
1000 to 3000 ft
1500m to 5 km
500 to 1000 ft
800 to 1500m
200 to 500 ft
< 800m
< 200 ft
Symbols :   Thunderstorms  Fog  Heavy snow  Heavy precipitations  Wind > 20 kt
SIGMETs :     Misc.  Thunderstorms  Icing  Turbulence  Mountain Waves  Volcanic Ashes







- Airport Elevation : 32 ft
- IATA code : LKZ


EGUL - RAF Lakenheath

CURRENT METAR :
  • 231856Z AUTO 29003KT 9999 CLR 07/05 A3028 RMK AO2 SLP257 T00680045 $

EXPIRED METARs :
  • 231756Z AUTO 34003KT 9999 CLR 09/06 A3024 RMK AO2 SLP244 60002 T00920059 10138 20092 52047 $
  • 231656Z AUTO 34007KT 9999 SCT070 10/07 A3019 RMK AO2 RAB03E22DZB22E26 SLP227 P0001 T01030066 $
  • 231626Z AUTO 34008KT 9999 SCT036 SCT075 10/07 A3017 RMK AO2 RAB03E22DZB22E26 SLP220 $

TAF AMD TAF EGUL
Valid from the 23 at 12:00 until the 24 at 18:00 UTC


231307Z 2312/2418 32009KT 9000 -SHRA SCT015 BKN020 OVC030 QNH3001INS
BECMG 2314/2315 33012KT 9999 NSW SCT020 BKN030 QNH3009INS
TEMPO 2315/2318 33012G20KT
BECMG 2318/2319 31009KT 9999 SCT020 SCT030 QNH3024INS
BECMG 2321/2322 31009KT 9999 SCT035 QNH3036INS
BECMG 2323/2324 VRB06KT 8000 BR FEW035 QNH3044INS
BECMG 2406/2407 31012KT 9999 NSW FEW015 FEW030 QNH3055INS TX13/2412Z TN05/2406Z LAST NO AMDS AFT 2312 NEXT 2402
No reported NOTAMs for that airfield.



MET'MAP, your aeronautical weather chart ! - Copyright ORBIFLY December 2007 - Disclaimer

ORBIFLY MET'MAP TEAM :

Programming & Development : Alexandra Zaïnal
Concept & Development : Baudouin d'Aumeries
Co-Development & Prog : Marc-Olivier Méhu
Technical & hardware support : Manuel Goepfert

Contact : metmap@orbifly.com




SOURCES & CREDITS :

   NOAA